Date,TemperatureHighF,TemperatureAvgF,TemperatureLowF,DewpointHighF,DewpointAvgF,DewpointLowF,HumidityHigh,HumidityAvg,HumidityLow,PressureMaxIn,PressureMinIn,WindSpeedMaxMPH,WindSpeedAvgMPH,GustSpeedMaxMPH,PrecipitationSumIn
2013-8-1,84.9,74.2,65.1,66.2,63.0,58.6,95,71,45,30.08,29.98,4,1,11,0.00
2013-8-2,80.6,72.8,68.5,70.3,65.1,59.8,93,77,66,29.99,29.92,8,2,16,0.00
2013-8-3,82.6,73.6,67.3,67.7,63.0,57.3,94,72,44,30.14,29.93,3,1,8,0.00
2013-8-4,79.0,70.7,61.3,61.2,59.1,56.8,87,68,48,30.20,30.08,3,0,7,0.12
2013-8-5,77.7,70.4,63.5,66.9,62.4,57.6,88,76,63,30.11,29.87,3,1,14,0.00
2013-8-6,86.7,76.1,68.2,73.6,70.0,65.6,97,82,63,29.93,29.84,4,1,10,0.00
2013-8-7,84.7,75.5,71.4,74.4,70.8,68.3,95,86,69,29.94,29.82,6,2,11,0.07
2013-8-8,80.6,72.8,67.1,70.6,67.3,64.4,95,83,66,30.00,29.91,2,1,8,0.00
2013-8-9,80.2,72.7,65.5,65.8,62.6,58.4,87,72,54,30.09,29.97,2,0,9,0.00
2013-8-10,81.3,73.3,66.4,65.8,61.2,57.0,87,68,44,30.16,30.08,3,1,10,0.00
2013-8-11,83.5,72.4,61.5,64.6,60.4,56.3,87,67,47,30.16,30.06,3,0,8,0.00
2013-8-12,79.9,73.7,67.1,72.2,66.2,60.4,87,77,70,30.08,29.92,4,1,9,0.00
2013-8-13,77.0,68.3,60.8,66.1,59.1,50.3,88,73,53,30.16,29.96,3,1,12,0.00
2013-8-14,73.9,63.3,51.8,54.9,51.4,48.1,89,67,45,30.24,30.14,3,1,8,0.00
2013-8-15,73.8,65.2,56.8,54.6,53.1,51.3,86,66,47,30.20,30.10,2,0,10,0.00
2013-8-16,77.7,67.8,59.7,58.5,55.4,52.1,82,66,45,30.19,30.12,2,1,9,0.00
2013-8-17,79.2,68.8,57.9,58.7,55.7,53.1,86,65,42,30.21,30.14,4,1,10,0.00
2013-8-18,82.2,71.2,59.2,62.8,58.8,53.7,85,66,50,30.20,30.09,3,1,9,0.00
2013-8-19,84.9,73.8,63.7,65.9,62.9,59.3,88,70,50,30.14,30.04,4,1,8,0.00
2013-8-20,87.1,75.6,65.1,68.3,64.2,60.6,86,69,47,30.12,30.04,5,1,10,0.00
2013-8-21,88.2,77.5,68.2,68.2,65.9,63.1,87,69,48,30.12,30.03,6,2,12,0.00
2013-8-22,87.8,77.8,70.2,73.3,68.2,64.4,83,73,57,30.09,30.03,5,1,11,0.00
2013-8-23,86.0,76.7,68.7,70.1,67.3,65.3,91,74,55,30.13,30.07,2,0,8,0.00
2013-8-24,88.9,77.3,67.5,69.0,66.3,63.2,86,70,50,30.23,30.12,3,0,9,0.00
2013-8-25,90.5,77.6,67.1,67.1,64.0,61.4,83,64,42,30.27,30.17,5,1,10,0.00
2013-8-26,91.8,80.1,70.2,73.9,69.2,61.6,90,71,48,30.20,30.05,4,1,9,0.00
2013-8-27,94.5,84.4,74.7,72.0,68.2,65.4,87,60,42,30.08,29.96,8,4,15,0.00
2013-8-28,95.5,82.5,72.3,72.4,67.9,64.0,76,62,44,30.03,29.96,6,3,14,0.00
2013-8-29,90.1,81.3,72.1,75.8,71.3,66.7,85,72,55,30.05,29.97,2,0,8,0.00
2013-8-30,97.9,84.8,75.0,74.3,72.5,70.0,93,69,42,29.98,29.81,6,2,13,0.00
2013-8-31,96.4,84.4,75.7,75.0,72.0,69.3,86,68,47,29.83,29.72,6,2,14,0.00